AirNav   Everest Fuels
 
 1060 users online  

83FL Nassau Airport
Yulee, Florida, USA

GOING TO YULEE?


FAA INFORMATION EFFECTIVE 16 JULY 2020

Location

FAA Identifier: 83FL
Lat/Long: 30-37-07.8540N 081-32-01.3380W
30-37.130900N 081-32.022300W
30.6188483,-81.5337050
(estimated)
Elevation: 20 ft. / 6 m (estimated)
Variation: 03W (1985)
From city: 1 mile N of YULEE, FL
Time zone: UTC -4 (UTC -5 during Standard Time)
Zip code: 32034

Airport Operations

Airport use: Private use. Permission required prior to landing
Activation date: 03/1983
Control tower: no
ARTCC: JACKSONVILLE CENTER
FSS: GAINESVILLE FLIGHT SERVICE STATION
Attendance: UNATNDD
Wind indicator: yes
Segmented circle: no
Lights: SS-SR

Airport Communications

WX AWOS-3 at FHB (4 nm E): 118.075 (904-277-7323)
WX ASOS at JAX (11 nm SW): PHONE 904-741-4304
WX ASOS at CRG (17 nm S): PHONE 904-646-4670

Nearby radio navigation aids

VOR radial/distance  VOR name  Freq  Var
CRGr359/16.8CRAIG VORTAC114.5003W
SSIr194/26.3BRUNSWICK VORTAC109.8004W
VQQr040/(30.6)CECIL VOR117.9003W

 
NDB name  Hdg/Dist  Freq  Var  ID
REYNOLDS016/39.633807WRYD .-. -.-- -..

Airport Services

Runway Information

Runway 12/30

Dimensions: 3150 x 60 ft. / 960 x 18 m
Surface: concrete
RUNWAY 12  RUNWAY 30
Traffic pattern: leftright
Obstructions: 200 ft. tower, lightednone

Airport Ownership and Management from official FAA records

Ownership: Privately-owned
Owner: STEPHEN E. HANCOCK
96541 CESSNA DRIVE
YULEE, FL 32097
Phone (904) 849-7947
Manager: STEPHEN E. HANCOCK
96541 CESSNA DRIVE
YULEE, FL 32097
Phone 904-849-7947

Airport Operational Statistics

Aircraft based on the field: 18
Single engine airplanes: 13
Multi engine airplanes: 2
Helicopters: 1
Ultralights: 2
    

Additional Remarks

FOR CD CTC JACKSONVILLE APCH AT 904-741-0284.

Instrument Procedures

There are no published instrument procedures at 83FL.

Some nearby airports with instrument procedures:

KFHB - Fernandina Beach Municipal Airport (4 nm E)
KJAX - Jacksonville International Airport (11 nm SW)
KNRB - Mayport Naval Station (Adm David L. McDonald Field) (15 nm S)
KCRG - Jacksonville Executive Airport at Craig (17 nm S)
KNIP - Jacksonville Naval Air Station (Towers Field) (24 nm S)
 
Loc | Ops | Rwys | IFR | FBO | Links
Com | Nav | Svcs | Stats | Notes
Area around 83FL (Nassau Airport)
 
Road maps at: MapQuest Bing Google
 
Aerial photo
WARNING: Photo may not be current or correct
Aerial photo of 83FL (Nassau Airport)
Photo by Jeff Slavkovsky
Taken in March 2010

Do you have a better or more recent aerial photo of Nassau Airport that you would like to share? If so, please send us your photo.

 
Sectional chart

 
Airport distance calculator
Flying to Nassau Airport? Find the distance to fly.

From to 83FL

Sunrise and sunset
Times for 03-Aug-2020
 Local
(UTC-4)
 Zulu
(UTC)
Morning civil twilight06:2110:21
Sunrise06:4710:47
Sunset20:1800:18
Evening civil twilight20:4400:44

Current date and time
Zulu (UTC)  04-Aug-2020 01:19:59
Local (UTC-4)  03-Aug-2020 21:19:59
 
METAR
KFHB 
4nm E 
040055Z AUTO 16007KT 10SM CLR 28/27 A2987 RMK AO2 T02800275
KJAX 
11nm SW 
040056Z 16006KT 10SM FEW035 SCT250 27/25 A2986 RMK AO2 SLP112 T02720250
KNRB 
15nm SE 
040052Z 15008KT 10SM FEW025 SCT250 28/24 A2988 RMK AO2 SLP117 T02780244
KCRG 
17nm S 
040053Z 15006KT 10SM CLR 28/24 A2989 RMK AO2 SLP120 T02780244
TAF
KJAX 
11nm SW 
032034Z 0321/0418 30009KT P6SM VCSH SCT025 BKN035 FM032200 30008KT P6SM SCT035 BKN250 FM040100 25003KT P6SM BKN250 FM041400 23006KT P6SM SCT030
KNRB 
15nm SE 
0323/0423 11007KT 9999 FEW025 BKN250 QNH2985INS FM040100 20006KT FEW035 SCT250 QNH2986INS FM041800 14010KT 9999 VCTS SCT030CB SCT250 QNH2990INS TEMPO 0418/0421 VRB15G25KT 4800 -TSRA BKN015 BKN030CB OVC080 AUTOMATED SENSOR METWATCH 0322 TIL 0409 T26/0310Z T32/0319Z FN20077
KCRG 
17nm S 
032034Z 0321/0418 28007KT P6SM VCSH SCT025 BKN035 FM032200 29006KT P6SM SCT035 BKN250 FM040100 24004KT P6SM BKN250 FM041400 23006KT P6SM SCT030
NOTAMs
Click for the latest NOTAMs
NOTAMs are issued by the DoD/FAA and will open in a separate window not controlled by AirNav.

 

 
 

Would you like to see your business listed on this page?

 If your business provides an interesting product or service to pilots, flight crews, aircraft, or users of the Nassau Airport, you should consider listing it here.  To start the listing process, click on the button below
 
Add a business
 

Other Pages about Nassau Airport

Update a link
 
Copyright © AirNav, LLC. All rights reserved. Privacy Policy  Contact